Alexandria, Egypt

1:18 PM EET on December 11, 2016 (GMT +0200)
Shatby | | Change Station

Elev 59 ft 31.21 °N, 29.92 °E | Updated 5 seconds ago

Scattered Clouds
Scattered Clouds
68.0 °F
Feels Like 68.0 °F
N
0.0
Wind Variable Wind from NW
Gusts 0.0 mph

Today
High -- | Low -- °F
--% Chance of Precip.
Yesterday
High -- | Low -- °F
Precip. -- in
Pressure 30.18 in
Visibility 6.2 miles
Clouds Scattered Clouds 2000 ft
Dew Point 47 °F
Humidity 47%
Rainfall in
Snow Depth Not available.
6:48 AM 4:58 PM
Waxing Gibbous, 91% visible
METAR HEAX 111000Z 23008KT 9999 SCT020 20/10 Q1022 NOSIG
Pressure 30.18 in
Visibility 6.2 miles
Clouds Scattered Clouds 2000 ft
Dew Point 47 °F
Humidity 47%
Rainfall in
Snow Depth Not available.
6:48 AM 4:58 PM
Waxing Gibbous, 91% visible
METAR HEAX 111000Z 23008KT 9999 SCT020 20/10 Q1022 NOSIG

10-Day Weather Forecast

No radar image for this location.
×

Almanac

Astronomy

Dec. 11, 2016 Rise Set
Actual Time
Civil Twilight
Nautical Twilight
Astronomical Twilight
Moon
Length of Visible Light
Length of Day
Tomorrow will be .
, % of the Moon is Illuminated

Today's Extremes

Country Highs Country Lows

Community

WunderPhotos

Upload Photos

1,956,710 photos uploaded!

WunderBlog® & News

Nearby

Air Quality

  Air Quality AQ Index Pollutant
Not available.

Snow Depth

Station Depth Elevation

Earthquake Activity

City Distance Mag. Time & Date
Minimum magnitude displayed is 2.5.

Coastal Water Temperatures

Place Temperature

Stations

Nearby Weather Stations

Station Location Temp. Windchill Dew Point Humidity Wind Precip. Elev Updated Type